Factoryville, New York
Current Conditions -  °F | °C
As of 9:35 AM on Thursday 30 Oct 2014 (Local Time) from K6B0 Reporting Station
Moderate Rain Moderate Rain  
Wind Chill: 46°   Ceiling: 3300
Heat Index: 46°   Visibility: 7mi
Dew Point: 45°   Wind: 0mph
Humidity: 98%   Direction: NA
Pressure: 29.96"   Gusts: NA
Location:  43.9506°N, 73.5319°W
Report Text: K6B0 301335Z AUTO 00000KT 7SM RA OVC033 08/07 A2996 RMK AO2 P0002 T00750072
Loading
Personal Weather Stations






























Interactive Weather Map
Tropical Storm Tracking
New forecast layout! Learn more

10-Day Weather Forecast

Advertisements
Track Severe Weather on mobile